sensor_id;sensor_type;location;lat;lon;timestamp;temperature;humidity
74376;HTU21D;62812;55.188;61.302;2024-02-15T00:00:17;-20.13;51.64
74376;HTU21D;62812;55.188;61.302;2024-02-15T00:02:44;-20.18;51.66
74376;HTU21D;62812;55.188;61.302;2024-02-15T00:05:10;-20.20;51.69
74376;HTU21D;62812;55.188;61.302;2024-02-15T00:07:37;-20.25;52.09
74376;HTU21D;62812;55.188;61.302;2024-02-15T00:10:07;-20.24;52.17
74376;HTU21D;62812;55.188;61.302;2024-02-15T00:12:35;-20.29;52.17
74376;HTU21D;62812;55.188;61.302;2024-02-15T00:15:02;-20.14;51.98
74376;HTU21D;62812;55.188;61.302;2024-02-15T00:17:30;-19.96;51.40
74376;HTU21D;62812;55.188;61.302;2024-02-15T00:19:58;-20.13;50.80
74376;HTU21D;62812;55.188;61.302;2024-02-15T00:22:26;-20.24;51.18
74376;HTU21D;62812;55.188;61.302;2024-02-15T00:24:53;-20.26;51.48
74376;HTU21D;62812;55.188;61.302;2024-02-15T00:27:21;-20.32;51.50
74376;HTU21D;62812;55.188;61.302;2024-02-15T00:29:48;-20.44;51.85
74376;HTU21D;62812;55.188;61.302;2024-02-15T00:32:14;-20.57;52.27
74376;HTU21D;62812;55.188;61.302;2024-02-15T00:34:43;-20.69;52.38
74376;HTU21D;62812;55.188;61.302;2024-02-15T00:37:09;-20.58;52.46
74376;HTU21D;62812;55.188;61.302;2024-02-15T00:39:36;-20.47;52.46
74376;HTU21D;62812;55.188;61.302;2024-02-15T00:42:04;-20.65;52.25
74376;HTU21D;62812;55.188;61.302;2024-02-15T00:44:33;-20.68;52.59
74376;HTU21D;62812;55.188;61.302;2024-02-15T00:47:00;-20.75;52.88
74376;HTU21D;62812;55.188;61.302;2024-02-15T00:49:27;-20.81;52.94
74376;HTU21D;62812;55.188;61.302;2024-02-15T00:51:54;-20.54;52.98
74376;HTU21D;62812;55.188;61.302;2024-02-15T00:54:21;-20.43;52.14
74376;HTU21D;62812;55.188;61.302;2024-02-15T00:56:48;-20.42;51.79
74376;HTU21D;62812;55.188;61.302;2024-02-15T00:59:15;-20.40;51.94
74376;HTU21D;62812;55.188;61.302;2024-02-15T01:01:43;-20.37;52.15
74376;HTU21D;62812;55.188;61.302;2024-02-15T01:04:09;-20.27;51.84
74376;HTU21D;62812;55.188;61.302;2024-02-15T01:06:37;-20.39;51.38
74376;HTU21D;62812;55.188;61.302;2024-02-15T01:09:03;-20.28;51.22
74376;HTU21D;62812;55.188;61.302;2024-02-15T01:11:30;-20.39;51.54
74376;HTU21D;62812;55.188;61.302;2024-02-15T01:13:58;-20.38;51.54
74376;HTU21D;62812;55.188;61.302;2024-02-15T01:16:25;-20.33;51.08
74376;HTU21D;62812;55.188;61.302;2024-02-15T01:18:59;-20.49;51.30
74376;HTU21D;62812;55.188;61.302;2024-02-15T01:21:26;-20.63;51.88
74376;HTU21D;62812;55.188;61.302;2024-02-15T01:23:54;-20.57;51.95
74376;HTU21D;62812;55.188;61.302;2024-02-15T01:26:21;-20.58;51.82
74376;HTU21D;62812;55.188;61.302;2024-02-15T01:28:47;-20.68;52.13
74376;HTU21D;62812;55.188;61.302;2024-02-15T01:31:14;-20.82;52.04
74376;HTU21D;62812;55.188;61.302;2024-02-15T01:33:43;-20.83;52.27
74376;HTU21D;62812;55.188;61.302;2024-02-15T01:36:15;-20.83;52.12
74376;HTU21D;62812;55.188;61.302;2024-02-15T01:38:42;-20.83;52.20
74376;HTU21D;62812;55.188;61.302;2024-02-15T01:41:10;-20.68;52.30
74376;HTU21D;62812;55.188;61.302;2024-02-15T01:43:37;-20.78;51.79
74376;HTU21D;62812;55.188;61.302;2024-02-15T01:46:08;-20.82;52.24
74376;HTU21D;62812;55.188;61.302;2024-02-15T01:48:37;-20.71;52.14
74376;HTU21D;62812;55.188;61.302;2024-02-15T01:51:07;-20.58;51.48
74376;HTU21D;62812;55.188;61.302;2024-02-15T01:53:38;-20.69;51.27
74376;HTU21D;62812;55.188;61.302;2024-02-15T01:56:06;-20.76;51.51
74376;HTU21D;62812;55.188;61.302;2024-02-15T01:58:33;-20.85;51.91
74376;HTU21D;62812;55.188;61.302;2024-02-15T02:01:03;-20.77;51.62
74376;HTU21D;62812;55.188;61.302;2024-02-15T02:03:31;-20.81;51.68
74376;HTU21D;62812;55.188;61.302;2024-02-15T02:05:57;-20.93;52.01
74376;HTU21D;62812;55.188;61.302;2024-02-15T02:08:27;-21.10;52.39
74376;HTU21D;62812;55.188;61.302;2024-02-15T02:10:55;-21.08;52.93
74376;HTU21D;62812;55.188;61.302;2024-02-15T02:13:24;-21.10;52.51
74376;HTU21D;62812;55.188;61.302;2024-02-15T02:15:50;-21.22;52.82
74376;HTU21D;62812;55.188;61.302;2024-02-15T02:18:17;-21.27;52.85
74376;HTU21D;62812;55.188;61.302;2024-02-15T02:20:44;-21.29;53.15
74376;HTU21D;62812;55.188;61.302;2024-02-15T02:23:14;-21.26;53.08
74376;HTU21D;62812;55.188;61.302;2024-02-15T02:25:44;-21.25;52.91
74376;HTU21D;62812;55.188;61.302;2024-02-15T02:28:11;-21.33;53.15
74376;HTU21D;62812;55.188;61.302;2024-02-15T02:30:39;-21.32;53.01
74376;HTU21D;62812;55.188;61.302;2024-02-15T02:33:11;-21.18;52.65
74376;HTU21D;62812;55.188;61.302;2024-02-15T02:35:38;-21.07;52.27
74376;HTU21D;62812;55.188;61.302;2024-02-15T02:38:09;-20.84;51.68
74376;HTU21D;62812;55.188;61.302;2024-02-15T02:40:38;-20.81;50.85
74376;HTU21D;62812;55.188;61.302;2024-02-15T02:43:07;-20.87;51.11
74376;HTU21D;62812;55.188;61.302;2024-02-15T02:45:37;-21.02;51.26
74376;HTU21D;62812;55.188;61.302;2024-02-15T02:48:05;-21.16;51.70
74376;HTU21D;62812;55.188;61.302;2024-02-15T02:50:32;-21.37;52.20
74376;HTU21D;62812;55.188;61.302;2024-02-15T02:53:00;-21.38;52.46
74376;HTU21D;62812;55.188;61.302;2024-02-15T02:55:27;-21.42;52.53
74376;HTU21D;62812;55.188;61.302;2024-02-15T02:57:55;-21.20;52.32
74376;HTU21D;62812;55.188;61.302;2024-02-15T03:00:24;-21.00;51.69
74376;HTU21D;62812;55.188;61.302;2024-02-15T03:02:50;-21.03;51.11
74376;HTU21D;62812;55.188;61.302;2024-02-15T03:05:26;-21.22;51.41
74376;HTU21D;62812;55.188;61.302;2024-02-15T03:07:59;-21.07;51.59
74376;HTU21D;62812;55.188;61.302;2024-02-15T03:10:26;-21.15;51.32
74376;HTU21D;62812;55.188;61.302;2024-02-15T03:12:54;-21.08;51.27
74376;HTU21D;62812;55.188;61.302;2024-02-15T03:15:23;-21.11;51.30
74376;HTU21D;62812;55.188;61.302;2024-02-15T03:17:51;-21.25;51.59
74376;HTU21D;62812;55.188;61.302;2024-02-15T03:20:17;-21.38;51.97
74376;HTU21D;62812;55.188;61.302;2024-02-15T03:22:51;-21.44;52.33
74376;HTU21D;62812;55.188;61.302;2024-02-15T03:25:19;-21.45;52.21
74376;HTU21D;62812;55.188;61.302;2024-02-15T03:28:02;-21.54;52.11
74376;HTU21D;62812;55.188;61.302;2024-02-15T03:30:34;-21.53;52.22
74376;HTU21D;62812;55.188;61.302;2024-02-15T03:33:02;-21.57;52.12
74376;HTU21D;62812;55.188;61.302;2024-02-15T03:35:31;-21.69;52.62
74376;HTU21D;62812;55.188;61.302;2024-02-15T03:37:58;-21.59;52.77
74376;HTU21D;62812;55.188;61.302;2024-02-15T03:40:26;-21.50;52.24
74376;HTU21D;62812;55.188;61.302;2024-02-15T03:42:53;-21.44;51.87
74376;HTU21D;62812;55.188;61.302;2024-02-15T03:45:21;-21.52;51.82
74376;HTU21D;62812;55.188;61.302;2024-02-15T03:47:52;-21.41;52.07
74376;HTU21D;62812;55.188;61.302;2024-02-15T03:50:21;-21.33;51.66
74376;HTU21D;62812;55.188;61.302;2024-02-15T03:52:51;-21.61;52.01
74376;HTU21D;62812;55.188;61.302;2024-02-15T03:55:18;-21.54;54.88
74376;HTU21D;62812;55.188;61.302;2024-02-15T03:57:46;-21.30;59.88
74376;HTU21D;62812;55.188;61.302;2024-02-15T04:00:13;-21.09;56.81
74376;HTU21D;62812;55.188;61.302;2024-02-15T04:02:40;-20.85;55.29
74376;HTU21D;62812;55.188;61.302;2024-02-15T04:05:09;-20.88;52.91
74376;HTU21D;62812;55.188;61.302;2024-02-15T04:07:38;-20.67;54.23
74376;HTU21D;62812;55.188;61.302;2024-02-15T04:10:05;-20.42;52.93
74376;HTU21D;62812;55.188;61.302;2024-02-15T04:12:34;-20.26;52.23
74376;HTU21D;62812;55.188;61.302;2024-02-15T04:15:06;-20.13;50.58
74376;HTU21D;62812;55.188;61.302;2024-02-15T04:17:38;-20.03;58.47
74376;HTU21D;62812;55.188;61.302;2024-02-15T04:20:09;-19.89;56.06
74376;HTU21D;62812;55.188;61.302;2024-02-15T04:22:36;-19.43;58.65
74376;HTU21D;62812;55.188;61.302;2024-02-15T04:25:05;-19.54;46.66
74376;HTU21D;62812;55.188;61.302;2024-02-15T04:27:42;-19.73;50.37
74376;HTU21D;62812;55.188;61.302;2024-02-15T04:30:10;-19.90;47.41
74376;HTU21D;62812;55.188;61.302;2024-02-15T04:32:37;-19.76;54.33
74376;HTU21D;62812;55.188;61.302;2024-02-15T04:35:04;-19.54;51.66
74376;HTU21D;62812;55.188;61.302;2024-02-15T04:37:41;-19.37;50.76
74376;HTU21D;62812;55.188;61.302;2024-02-15T04:40:18;-19.24;53.21
74376;HTU21D;62812;55.188;61.302;2024-02-15T04:42:47;-19.39;48.92
74376;HTU21D;62812;55.188;61.302;2024-02-15T04:45:15;-19.22;50.15
74376;HTU21D;62812;55.188;61.302;2024-02-15T04:47:56;-19.03;47.52
74376;HTU21D;62812;55.188;61.302;2024-02-15T04:50:24;-19.06;48.27
74376;HTU21D;62812;55.188;61.302;2024-02-15T04:52:53;-18.87;50.10
74376;HTU21D;62812;55.188;61.302;2024-02-15T04:55:20;-18.64;48.57
74376;HTU21D;62812;55.188;61.302;2024-02-15T04:57:46;-18.44;48.02
74376;HTU21D;62812;55.188;61.302;2024-02-15T05:00:15;-18.44;47.53
74376;HTU21D;62812;55.188;61.302;2024-02-15T05:02:43;-18.41;50.18
74376;HTU21D;62812;55.188;61.302;2024-02-15T05:05:10;-18.34;47.41
74376;HTU21D;62812;55.188;61.302;2024-02-15T05:07:38;-18.48;47.17
74376;HTU21D;62812;55.188;61.302;2024-02-15T05:10:07;-18.54;45.15
74376;HTU21D;62812;55.188;61.302;2024-02-15T05:12:36;-18.42;45.40
74376;HTU21D;62812;55.188;61.302;2024-02-15T05:15:03;-18.64;46.28
74376;HTU21D;62812;55.188;61.302;2024-02-15T05:17:37;-18.78;45.98
74376;HTU21D;62812;55.188;61.302;2024-02-15T05:20:08;-18.73;46.96
74376;HTU21D;62812;55.188;61.302;2024-02-15T05:22:44;-18.75;45.80
74376;HTU21D;62812;55.188;61.302;2024-02-15T05:25:13;-18.96;45.71
74376;HTU21D;62812;55.188;61.302;2024-02-15T05:27:41;-18.91;47.38
74376;HTU21D;62812;55.188;61.302;2024-02-15T05:30:11;-18.74;46.42
74376;HTU21D;62812;55.188;61.302;2024-02-15T05:32:38;-18.58;47.31
74376;HTU21D;62812;55.188;61.302;2024-02-15T05:35:10;-18.58;44.40
74376;HTU21D;62812;55.188;61.302;2024-02-15T05:37:40;-18.65;45.45
74376;HTU21D;62812;55.188;61.302;2024-02-15T05:40:08;-18.64;45.83
74376;HTU21D;62812;55.188;61.302;2024-02-15T05:42:43;-18.44;46.61
74376;HTU21D;62812;55.188;61.302;2024-02-15T05:45:29;-18.66;47.44
74376;HTU21D;62812;55.188;61.302;2024-02-15T05:48:05;-18.48;45.80
74376;HTU21D;62812;55.188;61.302;2024-02-15T05:50:33;-18.44;44.79
74376;HTU21D;62812;55.188;61.302;2024-02-15T05:53:00;-18.56;45.09
74376;HTU21D;62812;55.188;61.302;2024-02-15T05:55:27;-18.51;45.50
74376;HTU21D;62812;55.188;61.302;2024-02-15T05:57:56;-18.56;46.44
74376;HTU21D;62812;55.188;61.302;2024-02-15T06:00:23;-18.57;44.87
74376;HTU21D;62812;55.188;61.302;2024-02-15T06:02:49;-18.62;47.02
74376;HTU21D;62812;55.188;61.302;2024-02-15T06:05:16;-18.45;47.41
74376;HTU21D;62812;55.188;61.302;2024-02-15T06:07:44;-18.37;45.89
74376;HTU21D;62812;55.188;61.302;2024-02-15T06:10:10;-18.21;47.41
74376;HTU21D;62812;55.188;61.302;2024-02-15T06:12:37;-17.97;47.54
74376;HTU21D;62812;55.188;61.302;2024-02-15T06:15:09;-18.21;43.17
74376;HTU21D;62812;55.188;61.302;2024-02-15T06:17:41;-18.49;43.14
74376;HTU21D;62812;55.188;61.302;2024-02-15T06:20:13;-18.69;45.42
74376;HTU21D;62812;55.188;61.302;2024-02-15T06:22:49;-18.54;46.01
74376;HTU21D;62812;55.188;61.302;2024-02-15T06:25:18;-18.34;46.67
74376;HTU21D;62812;55.188;61.302;2024-02-15T06:27:50;-18.73;43.93
74376;HTU21D;62812;55.188;61.302;2024-02-15T06:30:21;-18.84;45.85
74376;HTU21D;62812;55.188;61.302;2024-02-15T06:33:06;-18.85;43.96
74376;HTU21D;62812;55.188;61.302;2024-02-15T06:35:53;-18.66;45.99
74376;HTU21D;62812;55.188;61.302;2024-02-15T06:38:38;-18.59;44.13
74376;HTU21D;62812;55.188;61.302;2024-02-15T06:41:25;-18.54;43.64
74376;HTU21D;62812;55.188;61.302;2024-02-15T06:43:52;-18.70;43.19
74376;HTU21D;62812;55.188;61.302;2024-02-15T06:46:21;-18.81;44.11
74376;HTU21D;62812;55.188;61.302;2024-02-15T06:48:49;-18.72;45.83
74376;HTU21D;62812;55.188;61.302;2024-02-15T06:51:15;-18.69;44.30
74376;HTU21D;62812;55.188;61.302;2024-02-15T06:53:45;-18.61;44.70
74376;HTU21D;62812;55.188;61.302;2024-02-15T06:56:13;-18.77;41.96
74376;HTU21D;62812;55.188;61.302;2024-02-15T06:58:41;-19.00;43.08
74376;HTU21D;62812;55.188;61.302;2024-02-15T07:01:08;-18.96;42.58
74376;HTU21D;62812;55.188;61.302;2024-02-15T07:03:37;-19.02;45.42
74376;HTU21D;62812;55.188;61.302;2024-02-15T07:06:05;-19.02;44.07
74376;HTU21D;62812;55.188;61.302;2024-02-15T07:08:32;-18.93;47.48
74376;HTU21D;62812;55.188;61.302;2024-02-15T07:10:58;-19.13;41.97
74376;HTU21D;62812;55.188;61.302;2024-02-15T07:13:25;-19.30;42.72
74376;HTU21D;62812;55.188;61.302;2024-02-15T07:15:52;-19.30;44.84
74376;HTU21D;62812;55.188;61.302;2024-02-15T07:18:19;-19.06;47.09
74376;HTU21D;62812;55.188;61.302;2024-02-15T07:20:52;-18.92;42.90
74376;HTU21D;62812;55.188;61.302;2024-02-15T07:23:19;-19.18;42.54
74376;HTU21D;62812;55.188;61.302;2024-02-15T07:25:46;-18.92;45.44
74376;HTU21D;62812;55.188;61.302;2024-02-15T07:28:15;-18.83;44.16
74376;HTU21D;62812;55.188;61.302;2024-02-15T07:30:41;-18.68;44.42
74376;HTU21D;62812;55.188;61.302;2024-02-15T07:33:08;-18.56;43.78
74376;HTU21D;62812;55.188;61.302;2024-02-15T07:35:34;-18.45;43.97
74376;HTU21D;62812;55.188;61.302;2024-02-15T07:38:02;-18.49;42.32
74376;HTU21D;62812;55.188;61.302;2024-02-15T07:40:31;-18.25;43.90
74376;HTU21D;62812;55.188;61.302;2024-02-15T07:43:04;-18.28;42.61
74376;HTU21D;62812;55.188;61.302;2024-02-15T07:45:33;-18.27;41.20
74376;HTU21D;62812;55.188;61.302;2024-02-15T07:48:04;-18.19;43.19
74376;HTU21D;62812;55.188;61.302;2024-02-15T07:50:31;-18.16;42.09
74376;HTU21D;62812;55.188;61.302;2024-02-15T07:52:57;-17.95;43.09
74376;HTU21D;62812;55.188;61.302;2024-02-15T07:55:26;-17.66;42.37
74376;HTU21D;62812;55.188;61.302;2024-02-15T07:57:54;-17.50;40.54
74376;HTU21D;62812;55.188;61.302;2024-02-15T08:00:22;-17.59;39.92
74376;HTU21D;62812;55.188;61.302;2024-02-15T08:02:49;-17.78;40.86
74376;HTU21D;62812;55.188;61.302;2024-02-15T08:05:16;-17.76;41.53
74376;HTU21D;62812;55.188;61.302;2024-02-15T08:07:45;-17.71;40.75
74376;HTU21D;62812;55.188;61.302;2024-02-15T08:10:13;-17.69;40.92
74376;HTU21D;62812;55.188;61.302;2024-02-15T08:12:42;-17.73;41.10
74376;HTU21D;62812;55.188;61.302;2024-02-15T08:15:09;-17.75;42.69
74376;HTU21D;62812;55.188;61.302;2024-02-15T08:17:41;-17.72;42.02
74376;HTU21D;62812;55.188;61.302;2024-02-15T08:20:10;-17.73;40.84
74376;HTU21D;62812;55.188;61.302;2024-02-15T08:22:38;-17.76;41.36
74376;HTU21D;62812;55.188;61.302;2024-02-15T08:25:07;-17.72;41.16
74376;HTU21D;62812;55.188;61.302;2024-02-15T08:27:37;-17.63;41.36
74376;HTU21D;62812;55.188;61.302;2024-02-15T08:30:10;-17.58;41.10
74376;HTU21D;62812;55.188;61.302;2024-02-15T08:32:37;-17.51;41.24
74376;HTU21D;62812;55.188;61.302;2024-02-15T08:35:04;-17.44;39.95
74376;HTU21D;62812;55.188;61.302;2024-02-15T08:37:34;-17.39;40.88
74376;HTU21D;62812;55.188;61.302;2024-02-15T08:40:02;-17.48;39.45
74376;HTU21D;62812;55.188;61.302;2024-02-15T08:42:31;-17.43;42.19
74376;HTU21D;62812;55.188;61.302;2024-02-15T08:44:58;-17.17;41.13
74376;HTU21D;62812;55.188;61.302;2024-02-15T08:47:26;-17.02;42.03
74376;HTU21D;62812;55.188;61.302;2024-02-15T08:49:53;-17.01;39.39
74376;HTU21D;62812;55.188;61.302;2024-02-15T08:52:19;-16.98;39.61
74376;HTU21D;62812;55.188;61.302;2024-02-15T08:54:46;-16.92;40.33
74376;HTU21D;62812;55.188;61.302;2024-02-15T08:57:13;-16.80;40.63
74376;HTU21D;62812;55.188;61.302;2024-02-15T08:59:40;-16.81;39.21
74376;HTU21D;62812;55.188;61.302;2024-02-15T09:02:08;-16.94;38.85
74376;HTU21D;62812;55.188;61.302;2024-02-15T09:04:36;-16.99;39.97
74376;HTU21D;62812;55.188;61.302;2024-02-15T09:07:03;-16.88;40.94
74376;HTU21D;62812;55.188;61.302;2024-02-15T09:09:30;-16.91;41.10
74376;HTU21D;62812;55.188;61.302;2024-02-15T09:11:57;-16.84;39.68
74376;HTU21D;62812;55.188;61.302;2024-02-15T09:14:27;-16.59;40.01
74376;HTU21D;62812;55.188;61.302;2024-02-15T09:16:55;-16.54;39.01
74376;HTU21D;62812;55.188;61.302;2024-02-15T09:19:21;-16.55;40.10
74376;HTU21D;62812;55.188;61.302;2024-02-15T09:21:49;-16.53;39.56
74376;HTU21D;62812;55.188;61.302;2024-02-15T09:24:15;-16.42;39.21
74376;HTU21D;62812;55.188;61.302;2024-02-15T09:26:43;-16.40;40.46
74376;HTU21D;62812;55.188;61.302;2024-02-15T09:29:13;-16.32;39.35
74376;HTU21D;62812;55.188;61.302;2024-02-15T09:31:40;-16.39;38.84
74376;HTU21D;62812;55.188;61.302;2024-02-15T09:34:06;-16.24;38.93
74376;HTU21D;62812;55.188;61.302;2024-02-15T09:36:34;-16.34;38.61
74376;HTU21D;62812;55.188;61.302;2024-02-15T09:39:02;-16.05;39.88
74376;HTU21D;62812;55.188;61.302;2024-02-15T09:41:29;-15.85;38.10
74376;HTU21D;62812;55.188;61.302;2024-02-15T09:43:57;-15.83;36.59
74376;HTU21D;62812;55.188;61.302;2024-02-15T09:46:23;-15.83;36.60
74376;HTU21D;62812;55.188;61.302;2024-02-15T09:48:51;-15.90;38.24
74376;HTU21D;62812;55.188;61.302;2024-02-15T09:51:20;-15.84;36.63
74376;HTU21D;62812;55.188;61.302;2024-02-15T09:53:47;-15.88;36.79
74376;HTU21D;62812;55.188;61.302;2024-02-15T09:56:16;-15.91;37.17
74376;HTU21D;62812;55.188;61.302;2024-02-15T09:58:44;-16.02;37.14
74376;HTU21D;62812;55.188;61.302;2024-02-15T10:01:16;-16.13;37.43
74376;HTU21D;62812;55.188;61.302;2024-02-15T10:03:48;-16.00;38.17
74376;HTU21D;62812;55.188;61.302;2024-02-15T10:06:16;-15.95;38.24
74376;HTU21D;62812;55.188;61.302;2024-02-15T10:08:44;-15.96;37.47
74376;HTU21D;62812;55.188;61.302;2024-02-15T10:11:11;-15.99;38.00
74376;HTU21D;62812;55.188;61.302;2024-02-15T10:13:39;-16.04;37.14
74376;HTU21D;62812;55.188;61.302;2024-02-15T10:16:16;-15.95;37.66
74376;HTU21D;62812;55.188;61.302;2024-02-15T10:18:42;-16.02;37.31
74376;HTU21D;62812;55.188;61.302;2024-02-15T10:21:09;-16.02;38.11
74376;HTU21D;62812;55.188;61.302;2024-02-15T10:23:39;-15.91;37.53
74376;HTU21D;62812;55.188;61.302;2024-02-15T10:26:19;-15.91;37.29
74376;HTU21D;62812;55.188;61.302;2024-02-15T10:29:04;-15.74;37.40
74376;HTU21D;62812;55.188;61.302;2024-02-15T10:31:32;-15.76;36.94
74376;HTU21D;62812;55.188;61.302;2024-02-15T10:34:03;-15.82;36.86
74376;HTU21D;62812;55.188;61.302;2024-02-15T10:36:31;-15.84;36.95
74376;HTU21D;62812;55.188;61.302;2024-02-15T10:39:11;-15.83;37.38
74376;HTU21D;62812;55.188;61.302;2024-02-15T10:41:44;-15.77;38.20
74376;HTU21D;62812;55.188;61.302;2024-02-15T10:44:16;-15.79;36.43
74376;HTU21D;62812;55.188;61.302;2024-02-15T10:46:45;-15.67;37.83
74376;HTU21D;62812;55.188;61.302;2024-02-15T10:49:13;-15.58;37.02
74376;HTU21D;62812;55.188;61.302;2024-02-15T10:51:44;-15.46;37.96
74376;HTU21D;62812;55.188;61.302;2024-02-15T10:54:23;-15.34;36.28
74376;HTU21D;62812;55.188;61.302;2024-02-15T10:56:52;-15.33;36.75
74376;HTU21D;62812;55.188;61.302;2024-02-15T10:59:26;-15.38;37.36
74376;HTU21D;62812;55.188;61.302;2024-02-15T11:01:59;-15.31;37.72
74376;HTU21D;62812;55.188;61.302;2024-02-15T11:04:27;-15.19;37.11
74376;HTU21D;62812;55.188;61.302;2024-02-15T11:07:00;-15.06;37.59
74376;HTU21D;62812;55.188;61.302;2024-02-15T11:09:28;-14.99;37.22
74376;HTU21D;62812;55.188;61.302;2024-02-15T11:11:55;-14.94;36.54
74376;HTU21D;62812;55.188;61.302;2024-02-15T11:14:28;-15.04;36.50
74376;HTU21D;62812;55.188;61.302;2024-02-15T11:16:55;-15.13;36.82
74376;HTU21D;62812;55.188;61.302;2024-02-15T11:19:41;-15.22;36.15
74376;HTU21D;62812;55.188;61.302;2024-02-15T11:22:14;-15.31;36.67
74376;HTU21D;62812;55.188;61.302;2024-02-15T11:24:48;-15.28;37.38
74376;HTU21D;62812;55.188;61.302;2024-02-15T11:27:24;-15.20;36.82
74376;HTU21D;62812;55.188;61.302;2024-02-15T11:29:55;-15.22;35.60
74376;HTU21D;62812;55.188;61.302;2024-02-15T11:32:37;-15.15;37.86
74376;HTU21D;62812;55.188;61.302;2024-02-15T11:35:06;-15.22;37.46
74376;HTU21D;62812;55.188;61.302;2024-02-15T11:37:54;-15.10;37.59
74376;HTU21D;62812;55.188;61.302;2024-02-15T11:41:02;-15.05;37.95
74376;HTU21D;62812;55.188;61.302;2024-02-15T11:43:52;-14.92;37.82
74376;HTU21D;62812;55.188;61.302;2024-02-15T11:46:27;-14.90;36.90
74376;HTU21D;62812;55.188;61.302;2024-02-15T11:48:58;-14.94;36.31
74376;HTU21D;62812;55.188;61.302;2024-02-15T11:51:31;-14.98;38.33
74376;HTU21D;62812;55.188;61.302;2024-02-15T11:54:03;-15.06;37.44
74376;HTU21D;62812;55.188;61.302;2024-02-15T11:56:32;-15.05;38.94
74376;HTU21D;62812;55.188;61.302;2024-02-15T11:59:05;-15.19;37.06
74376;HTU21D;62812;55.188;61.302;2024-02-15T12:01:36;-15.24;37.77
74376;HTU21D;62812;55.188;61.302;2024-02-15T12:04:21;-15.29;39.04
74376;HTU21D;62812;55.188;61.302;2024-02-15T12:07:20;-15.34;38.99
74376;HTU21D;62812;55.188;61.302;2024-02-15T12:10:07;-15.23;39.47
74376;HTU21D;62812;55.188;61.302;2024-02-15T12:12:52;-15.50;37.29
74376;HTU21D;62812;55.188;61.302;2024-02-15T12:15:37;-15.95;38.11
74376;HTU21D;62812;55.188;61.302;2024-02-15T12:18:23;-16.28;39.07
74376;HTU21D;62812;55.188;61.302;2024-02-15T12:21:14;-16.55;39.96
74376;HTU21D;62812;55.188;61.302;2024-02-15T12:23:41;-16.68;40.34
74376;HTU21D;62812;55.188;61.302;2024-02-15T12:26:08;-16.79;40.81
74376;HTU21D;62812;55.188;61.302;2024-02-15T12:28:35;-16.87;41.04
74376;HTU21D;62812;55.188;61.302;2024-02-15T12:31:02;-16.97;41.12
74376;HTU21D;62812;55.188;61.302;2024-02-15T12:33:34;-17.07;41.37
74376;HTU21D;62812;55.188;61.302;2024-02-15T12:36:04;-17.12;41.91
74376;HTU21D;62812;55.188;61.302;2024-02-15T12:38:31;-17.13;42.01
74376;HTU21D;62812;55.188;61.302;2024-02-15T12:41:01;-17.16;42.17
74376;HTU21D;62812;55.188;61.302;2024-02-15T12:43:28;-17.17;42.13
74376;HTU21D;62812;55.188;61.302;2024-02-15T12:45:55;-17.16;42.67
74376;HTU21D;62812;55.188;61.302;2024-02-15T12:48:23;-17.20;42.53
74376;HTU21D;62812;55.188;61.302;2024-02-15T12:50:50;-17.20;42.84
74376;HTU21D;62812;55.188;61.302;2024-02-15T12:53:21;-17.18;42.61
74376;HTU21D;62812;55.188;61.302;2024-02-15T12:55:53;-16.93;45.62
74376;HTU21D;62812;55.188;61.302;2024-02-15T12:58:22;-16.68;44.38
74376;HTU21D;62812;55.188;61.302;2024-02-15T13:00:55;-16.48;43.79
74376;HTU21D;62812;55.188;61.302;2024-02-15T13:03:24;-16.33;43.11
74376;HTU21D;62812;55.188;61.302;2024-02-15T13:05:52;-16.24;43.19
74376;HTU21D;62812;55.188;61.302;2024-02-15T13:08:19;-16.10;42.57
74376;HTU21D;62812;55.188;61.302;2024-02-15T13:10:46;-16.08;42.48
74376;HTU21D;62812;55.188;61.302;2024-02-15T13:13:13;-15.97;41.39
74376;HTU21D;62812;55.188;61.302;2024-02-15T13:15:43;-15.95;41.32
74376;HTU21D;62812;55.188;61.302;2024-02-15T13:18:10;-15.91;41.43
74376;HTU21D;62812;55.188;61.302;2024-02-15T13:20:39;-15.83;42.27
74376;HTU21D;62812;55.188;61.302;2024-02-15T13:23:08;-15.75;41.20
74376;HTU21D;62812;55.188;61.302;2024-02-15T13:25:34;-15.70;41.07
74376;HTU21D;62812;55.188;61.302;2024-02-15T13:28:04;-15.78;41.07
74376;HTU21D;62812;55.188;61.302;2024-02-15T13:30:31;-15.74;41.23
74376;HTU21D;62812;55.188;61.302;2024-02-15T13:32:58;-15.75;40.93
74376;HTU21D;62812;55.188;61.302;2024-02-15T13:35:25;-15.67;41.78
74376;HTU21D;62812;55.188;61.302;2024-02-15T13:37:52;-15.65;39.99
74376;HTU21D;62812;55.188;61.302;2024-02-15T13:40:21;-15.56;41.79
74376;HTU21D;62812;55.188;61.302;2024-02-15T13:42:53;-15.50;41.36
74376;HTU21D;62812;55.188;61.302;2024-02-15T13:45:22;-15.59;41.00
74376;HTU21D;62812;55.188;61.302;2024-02-15T13:47:49;-15.43;41.52
74376;HTU21D;62812;55.188;61.302;2024-02-15T13:50:22;-15.36;41.46
74376;HTU21D;62812;55.188;61.302;2024-02-15T13:52:49;-15.36;41.04
74376;HTU21D;62812;55.188;61.302;2024-02-15T13:55:20;-15.41;40.79
74376;HTU21D;62812;55.188;61.302;2024-02-15T13:57:50;-15.44;40.79
74376;HTU21D;62812;55.188;61.302;2024-02-15T14:00:18;-15.45;40.39
74376;HTU21D;62812;55.188;61.302;2024-02-15T14:02:48;-15.40;40.77
74376;HTU21D;62812;55.188;61.302;2024-02-15T14:05:15;-15.48;39.85
74376;HTU21D;62812;55.188;61.302;2024-02-15T14:07:47;-15.43;41.00
74376;HTU21D;62812;55.188;61.302;2024-02-15T14:10:14;-15.51;40.17
74376;HTU21D;62812;55.188;61.302;2024-02-15T14:12:41;-15.55;40.33
74376;HTU21D;62812;55.188;61.302;2024-02-15T14:15:09;-15.50;41.67
74376;HTU21D;62812;55.188;61.302;2024-02-15T14:17:36;-15.47;40.68
74376;HTU21D;62812;55.188;61.302;2024-02-15T14:20:03;-15.48;41.10
74376;HTU21D;62812;55.188;61.302;2024-02-15T14:22:34;-15.38;41.21
74376;HTU21D;62812;55.188;61.302;2024-02-15T14:25:01;-15.32;40.73
74376;HTU21D;62812;55.188;61.302;2024-02-15T14:27:27;-15.35;39.97
74376;HTU21D;62812;55.188;61.302;2024-02-15T14:29:54;-15.36;40.82
74376;HTU21D;62812;55.188;61.302;2024-02-15T14:32:45;-15.39;40.80
74376;HTU21D;62812;55.188;61.302;2024-02-15T14:35:30;-15.37;40.46
74376;HTU21D;62812;55.188;61.302;2024-02-15T14:38:02;-15.33;40.16
74376;HTU21D;62812;55.188;61.302;2024-02-15T14:40:29;-15.29;40.34
74376;HTU21D;62812;55.188;61.302;2024-02-15T14:42:56;-15.32;40.17
74376;HTU21D;62812;55.188;61.302;2024-02-15T14:45:22;-15.34;40.24
74376;HTU21D;62812;55.188;61.302;2024-02-15T14:47:50;-15.31;40.13
74376;HTU21D;62812;55.188;61.302;2024-02-15T14:50:17;-15.26;40.55
74376;HTU21D;62812;55.188;61.302;2024-02-15T14:52:43;-15.22;40.17
74376;HTU21D;62812;55.188;61.302;2024-02-15T14:55:09;-15.20;39.74
74376;HTU21D;62812;55.188;61.302;2024-02-15T14:57:37;-15.19;40.91
74376;HTU21D;62812;55.188;61.302;2024-02-15T15:00:10;-15.16;40.19
74376;HTU21D;62812;55.188;61.302;2024-02-15T15:02:40;-15.10;40.32